Moyie Springs, ID

7:04 AM PDT on October 22, 2014 (GMT -0700)
Sandpoint | Change Station
CLOSE
Current Station
Airport
Location: Sandpoint,
Elevation: 2126 ft
Nearby Weather Stations

Elev 2126 ft 48.30 °N, 116.56 °W | Updated 9 minutes ago

Overcast
Overcast
45 °F
Feels Like 40 °F
N
8
Wind Variable Wind from NNE

Today
High -- | Low -- °F
--% Chance of Precip.
Yesterday
High -- | Low -- °F
Precip. -- in
7:16 AM 5:42 PM
Waning Crescent, 2% visible
Pressure 29.95 in
Visibility 10.0 miles
Clouds Clear
Windchill 40 °F
Dew Point 43 °F
Humidity 93%
Rainfall 0.00 in
Snow Depth 1 in
UV 0 out of 12
Pollen .40 out of 12
Air Quality Not available.
Flu Activity Sporadic
METAR KSZT 221355Z AUTO 03007KT 10SM CLR 07/06 A2995 RMK AO2

More Conditions Fewer Conditions

Pressure 29.95 in
Visibility 10.0 miles
Clouds Clear
Windchill 40 °F
Dew Point 43 °F
Humidity 93%
Rainfall 0.00 in
Snow Depth 1 in
UV 0 out of 12
Pollen .40 out of 12
Air Quality Not available.
Flu Activity Sporadic
METAR KSZT 221355Z AUTO 03007KT 10SM CLR 07/06 A2995 RMK AO2

More Conditions Fewer Conditions

10-Day Weather Forecast

Almanac

Astronomy

Oct. 22, 2014 Rise Set
Actual Time 7:16 AM PDT 5:42 PM PDT
Civil Twilight 6:44 AM PDT 6:14 PM PDT
Nautical Twilight 6:07 AM PDT 6:51 PM PDT
Astronomical Twilight 5:30 AM PDT 7:27 PM PDT
Moon 5:56 AM PDT 5:15 PM PDT
Length of Visible Light 11h 30m
Length of Day
10h 26m
Tomorrow will be 3m 23s shorter.
Waning Crescent, 2% of the Moon is Illuminated
Today
Waning Crescent
Oct 23
New
Oct 30
First Quarter
Nov 6
Full
Nov 14
Last Quarter

Today's Extremes

State Highs State Lows

Community

WunderPhotos

Upload Photos

1,763,923 photos uploaded!

WunderBlogs® & News

Nearby

Snow Depth

Station Depth Elevation
Myrtle Creek 1 in 3520 ft
Hidden Lake 1 in 5040 ft
Schweitzer Basin 0 in 6090 ft
Bear Mountain 0 in 5400 ft
Mosquito Ridge 0 in 5200 ft

Earthquake Activity

City Distance Mag. Time & Date
No recent earthquake activity has been reported nearby.
Minimum magnitude displayed is 2.5.

Coastal Water Temperatures

Place Temperature
No Stations Reporting

Nearby Weather Stations